Time;durP1;ratioP1;P1;durP2;ratioP2;P2;SDS_P1;SDS_P2;PMS_P1;PMS_P2;Temp;Humidity;BMP_temperature;BMP_pressure;BME280_temperature;BME280_humidity;BME280_pressure;Samples;Min_cycle;Max_cycle;Signal;HPM_P1;HPM_P2
2022/11/01 00:01:20;;;;;;;5.90;3.35;;;;;;;20.04;57.95;100776.59;5023778;28;20350;-65
2022/11/01 00:03:45;;;;;;;6.53;3.45;;;;;;;20.03;57.98;100780.22;5023502;28;20404;-66
2022/11/01 00:06:10;;;;;;;8.67;3.40;;;;;;;20.03;57.62;100772.28;5023841;28;20039;-66
2022/11/01 00:08:36;;;;;;;7.77;3.57;;;;;;;20.03;58.06;100774.13;5023820;28;20325;-65
2022/11/01 00:11:07;;;;;;;9.27;3.50;;;;;;;19.99;57.93;100764.78;5023074;28;20662;-65
2022/11/01 00:13:32;;;;;;;6.90;3.20;;;;;;;20.00;57.74;100766.47;5023931;28;20266;-65
2022/11/01 00:15:57;;;;;;;8.95;3.67;;;;;;;19.97;57.96;100762.25;5024014;28;20063;-65
2022/11/01 00:18:23;;;;;;;7.80;3.40;;;;;;;20.00;57.84;100769.09;5023673;28;20124;-66
2022/11/01 00:20:49;;;;;;;5.97;3.13;;;;;;;19.97;57.65;100762.25;5039152;28;20040;-67
2022/11/01 00:23:14;;;;;;;5.20;3.00;;;;;;;19.98;57.91;100761.31;5023160;28;20123;-66
2022/11/01 00:25:39;;;;;;;5.80;2.90;;;;;;;19.98;57.72;100761.31;5023362;28;20385;-67
2022/11/01 00:28:04;;;;;;;7.87;3.60;;;;;;;19.97;57.93;100761.44;5023708;28;20082;-64
2022/11/01 00:30:30;;;;;;;6.03;3.30;;;;;;;19.93;57.85;100761.72;5023543;28;20844;-65
2022/11/01 00:32:56;;;;;;;5.95;3.40;;;;;;;19.93;57.90;100745.84;5023447;28;20994;-66
2022/11/01 00:35:21;;;;;;;6.10;3.10;;;;;;;19.98;57.83;100755.16;5022974;28;20103;-65
2022/11/01 00:37:47;;;;;;;7.80;3.53;;;;;;;19.87;58.19;100742.94;5022788;28;20471;-65
2022/11/01 00:40:12;;;;;;;6.68;3.40;;;;;;;19.96;57.88;100759.75;5023232;28;20151;-65
2022/11/01 00:42:37;;;;;;;5.72;3.40;;;;;;;19.94;58.09;100755.44;5023009;28;20033;-66
2022/11/01 00:45:03;;;;;;;6.97;3.13;;;;;;;19.89;57.82;100744.44;5038633;28;20118;-65
2022/11/01 00:47:29;;;;;;;6.55;3.35;;;;;;;19.93;57.82;100748.50;5023387;28;20321;-65
2022/11/01 00:49:54;;;;;;;5.82;3.10;;;;;;;19.93;58.05;100753.78;5022884;28;20029;-64
2022/11/01 00:52:19;;;;;;;5.47;3.10;;;;;;;19.92;58.20;100746.81;5022204;28;20033;-64
2022/11/01 00:54:45;;;;;;;7.80;3.67;;;;;;;19.91;58.06;100745.13;5023241;28;20259;-66
2022/11/01 00:57:10;;;;;;;8.37;3.60;;;;;;;19.90;57.96;100737.34;5022589;28;20251;-65
2022/11/01 00:59:35;;;;;;;5.63;3.05;;;;;;;19.90;58.00;100735.53;5022800;28;20806;-65
2022/11/01 01:02:00;;;;;;;6.27;3.07;;;;;;;19.88;58.24;100734.00;5023214;28;20029;-65
2022/11/01 01:04:26;;;;;;;6.50;3.00;;;;;;;19.91;58.19;100736.38;5022680;28;20279;-65
2022/11/01 01:06:51;;;;;;;6.20;3.60;;;;;;;19.87;58.05;100735.00;5022689;28;20357;-64
2022/11/01 01:09:16;;;;;;;5.97;3.20;;;;;;;19.90;58.17;100737.34;5037518;28;20032;-66
2022/11/01 01:11:41;;;;;;;6.03;3.15;;;;;;;19.89;58.02;100723.28;5022560;28;20273;-64
2022/11/01 01:14:07;;;;;;;6.20;3.50;;;;;;;19.87;58.22;100721.78;5022132;28;20028;-64
2022/11/01 01:16:32;;;;;;;7.03;3.77;;;;;;;19.87;58.02;100721.78;5023280;28;20061;-65
2022/11/01 01:18:57;;;;;;;5.18;3.08;;;;;;;19.88;58.28;100734.81;5022404;28;20259;-65
2022/11/01 01:21:22;;;;;;;6.70;3.35;;;;;;;19.87;58.21;100724.41;5022519;28;20100;-65
2022/11/01 01:23:50;;;;;;;5.97;3.07;;;;;;;19.89;58.19;100739.16;5022216;28;20037;-66
2022/11/01 01:26:15;;;;;;;6.03;2.90;;;;;;;19.85;58.15;100727.19;5021928;28;20274;-66
2022/11/01 01:28:40;;;;;;;5.60;2.75;;;;;;;19.89;58.13;100740.97;5022447;28;20030;-65
2022/11/01 01:31:07;;;;;;;6.67;3.13;;;;;;;19.87;57.96;100745.56;5037324;28;20052;-65
2022/11/01 01:33:33;;;;;;;5.35;2.80;;;;;;;19.86;58.44;100728.84;5022561;28;20267;-66
2022/11/01 01:36:03;;;;;;;7.80;3.17;;;;;;;19.85;58.12;100724.56;5021486;28;20136;-66
2022/11/01 01:38:29;;;;;;;6.43;3.35;;;;;;;19.84;58.47;100738.75;5022099;28;20031;-65
2022/11/01 01:41:54;;;;;;;6.15;3.10;;;;;;;19.85;58.22;100734.28;5021687;28;20029;-65
2022/11/01 01:43:42;;;;;;;5.38;3.03;;;;;;;19.86;58.43;100735.97;5021605;28;20033;-66
2022/11/01 01:46:09;;;;;;;6.82;3.17;;;;;;;19.84;58.38;100727.34;5021359;28;20029;-66
2022/11/01 01:48:35;;;;;;;6.97;2.78;;;;;;;19.84;58.23;100729.97;5022182;28;20026;-65
2022/11/01 01:51:05;;;;;;;7.93;3.15;;;;;;;19.86;58.48;100725.38;5020948;28;20033;-66
2022/11/01 01:53:35;;;;;;;5.72;2.97;;;;;;;19.78;58.13;100712.84;5021730;28;20116;-65
2022/11/01 01:56:22;;;;;;;5.43;3.15;;;;;;;19.86;58.17;100728.84;5022272;28;20033;-66
2022/11/01 01:58:55;;;;;;;6.32;3.10;;;;;;;19.85;58.50;100715.75;5021801;28;20021;-68
2022/11/01 02:01:21;;;;;;;9.50;3.00;;;;;;;19.84;58.23;100722.88;5021857;28;20033;-66
2022/11/01 02:03:46;;;;;;;6.77;3.20;;;;;;;19.81;58.57;100717.84;5034935;28;20040;-66
2022/11/01 02:06:14;;;;;;;7.78;3.00;;;;;;;19.82;58.15;100716.03;5021864;28;20255;-67
2022/11/01 02:08:46;;;;;;;6.88;3.10;;;;;;;19.85;58.26;100718.41;5020866;28;20091;-67
2022/11/01 02:11:14;;;;;;;4.78;2.80;;;;;;;19.78;58.48;100723.41;5021673;28;20029;-66
2022/11/01 02:13:39;;;;;;;6.38;3.00;;;;;;;19.84;58.37;100722.03;5020232;28;20084;-65
2022/11/01 02:16:39;;;;;;;7.13;2.90;;;;;;;19.84;58.56;100735.28;5021364;28;20072;-66
2022/11/01 02:19:19;;;;;;;4.75;2.60;;;;;;;19.83;58.20;100731.78;5020024;28;20285;-64
2022/11/01 02:21:59;;;;;;;7.40;3.42;;;;;;;19.78;58.66;100726.06;5020497;28;20087;-65
2022/11/01 02:24:41;;;;;;;5.55;3.08;;;;;;;19.83;58.27;100730.94;5019220;28;20532;-68
2022/11/01 02:27:12;;;;;;;5.47;2.90;;;;;;;19.78;58.50;100718.13;5021078;28;20029;-65
2022/11/01 02:30:04;;;;;;;6.93;3.00;;;;;;;19.81;58.64;100723.16;5020502;28;20032;-66
2022/11/01 02:32:48;;;;;;;5.78;3.10;;;;;;;19.81;58.32;100736.38;5021061;28;21022;-65
2022/11/01 02:35:23;;;;;;;5.68;3.10;;;;;;;19.82;58.08;100730.13;5020575;28;20075;-66
2022/11/01 02:38:03;;;;;;;5.88;2.85;;;;;;;19.78;58.51;100727.88;5020114;28;20033;-65
2022/11/01 02:40:40;;;;;;;4.78;2.95;;;;;;;19.82;58.22;100732.75;5019550;28;20029;-66
2022/11/01 02:43:13;;;;;;;5.65;3.00;;;;;;;19.81;58.35;100741.66;5019587;28;20508;-65
2022/11/01 02:45:43;;;;;;;5.90;3.00;;;;;;;19.81;58.23;100754.06;5021156;28;20025;-64
2022/11/01 02:48:08;;;;;;;5.45;2.72;;;;;;;19.72;58.58;100742.44;5020947;28;20041;-67
2022/11/01 02:50:39;;;;;;;6.72;2.90;;;;;;;19.77;58.25;100748.19;5019658;28;20028;-65
2022/11/01 02:53:06;;;;;;;6.15;3.67;;;;;;;19.79;58.38;100748.91;5019556;28;20477;-65
2022/11/01 02:55:34;;;;;;;5.82;3.28;;;;;;;19.75;58.45;100736.88;5020164;28;20033;-68
2022/11/01 02:58:27;;;;;;;6.05;2.90;;;;;;;19.79;58.22;100748.91;5020313;28;20048;-66
2022/11/01 03:00:54;;;;;;;5.22;2.97;;;;;;;19.79;58.49;100753.34;5020061;28;20042;-66
2022/11/01 03:03:26;;;;;;;5.53;3.10;;;;;;;19.78;58.21;100765.72;5020673;28;20033;-66
2022/11/01 03:06:09;;;;;;;6.57;3.33;;;;;;;19.74;58.42;100765.16;5020581;28;20025;-67
2022/11/01 03:08:45;;;;;;;6.72;3.03;;;;;;;19.79;58.25;100775.34;5020557;28;20069;-66
2022/11/01 03:11:15;;;;;;;5.88;3.15;;;;;;;19.74;58.36;100764.28;5021096;28;20021;-65
2022/11/01 03:14:02;;;;;;;5.78;3.17;;;;;;;19.74;58.31;100780.16;5020831;28;20037;-66
2022/11/01 03:16:36;;;;;;;6.45;3.00;;;;;;;19.77;58.14;100779.91;5020303;28;20555;-67
2022/11/01 03:19:22;;;;;;;;;;;;;;;19.75;58.39;100784.47;5020422;28;20033;-65
2022/11/01 03:21:58;;;;;;;5.40;2.53;;;;;;;19.75;58.45;100797.69;5023536;28;20364;-66
2022/11/01 03:24:26;;;;;;;5.18;2.88;;;;;;;19.73;58.54;100795.19;5023999;28;20056;-66
2022/11/01 03:27:14;;;;;;;4.70;2.70;;;;;;;19.69;58.44;100791.16;5023974;28;20064;-67
2022/11/01 03:29:44;;;;;;;6.82;3.17;;;;;;;19.71;58.22;100809.50;5024503;28;20137;-65
2022/11/01 03:32:11;;;;;;;6.70;2.92;;;;;;;19.69;58.26;100803.53;5023586;28;20029;-66
2022/11/01 03:34:38;;;;;;;5.63;2.60;;;;;;;19.71;57.99;100807.72;5024877;28;20029;-66
2022/11/01 03:37:08;;;;;;;11.02;4.30;;;;;;;19.71;58.00;100828.88;5039702;28;20029;-66
2022/11/01 03:39:40;;;;;;;5.00;2.53;;;;;;;19.69;57.76;100827.31;5023999;28;20043;-65
2022/11/01 03:42:13;;;;;;;4.35;2.70;;;;;;;19.72;57.79;100835.81;5024254;28;20032;-66
2022/11/01 03:44:42;;;;;;;5.60;2.50;;;;;;;19.68;57.59;100823.03;5023954;28;20034;-66
2022/11/01 03:47:10;;;;;;;4.03;2.53;;;;;;;19.72;57.32;100832.34;5024257;28;20033;-65
2022/11/01 03:49:35;;;;;;;4.68;2.38;;;;;;;19.69;57.45;100830.81;5024563;28;20103;-65
2022/11/01 03:52:00;;;;;;;5.53;2.70;;;;;;;19.69;57.26;100835.25;5023493;28;20421;-64
2022/11/01 03:54:28;;;;;;;6.10;2.75;;;;;;;19.67;57.22;100861.81;5024567;28;20282;-66
2022/11/01 03:56:54;;;;;;;4.82;2.40;;;;;;;19.65;57.25;100853.22;5023770;28;20472;-65
2022/11/01 03:59:19;;;;;;;4.72;2.42;;;;;;;19.63;57.01;100847.22;5024269;28;20088;-65
2022/11/01 04:01:44;;;;;;;4.90;2.70;;;;;;;19.64;56.42;100859.44;5023054;28;20111;-66
2022/11/01 04:04:10;;;;;;;3.93;2.07;;;;;;;19.67;56.47;100869.75;5023934;28;20072;-66
2022/11/01 04:06:35;;;;;;;4.53;2.20;;;;;;;19.62;56.13;100882.56;5024137;28;20274;-65
2022/11/01 04:09:00;;;;;;;3.70;2.05;;;;;;;19.62;56.20;100890.47;5023968;28;20029;-65
2022/11/01 04:11:26;;;;;;;3.90;2.00;;;;;;;19.60;56.01;100889.78;5023436;28;20051;-67
2022/11/01 04:13:51;;;;;;;6.78;2.65;;;;;;;19.61;55.99;100903.84;5022795;28;20037;-65
2022/11/01 04:21:44;;;;;;;4.72;1.98;;;;;;;19.61;55.67;100911.75;5022179;28;20049;-67
2022/11/01 04:24:10;;;;;;;4.30;1.80;;;;;;;19.61;55.64;100917.06;5023773;28;20037;-67
2022/11/01 04:26:35;;;;;;;3.88;1.63;;;;;;;19.57;55.51;100927.88;5039437;28;20708;-66
2022/11/01 04:29:01;;;;;;;4.30;1.98;;;;;;;19.59;55.27;100925.13;5023426;28;20048;-65
2022/11/01 04:31:32;;;;;;;5.13;2.15;;;;;;;19.60;55.38;100945.31;5022508;28;20033;-66
2022/11/01 04:33:59;;;;;;;3.88;1.70;;;;;;;19.56;55.24;100944.72;5023130;28;20028;-66
2022/11/01 04:36:25;;;;;;;3.55;1.90;;;;;;;19.51;55.05;100944.28;5022087;28;20045;-65
2022/11/01 04:38:51;;;;;;;4.63;1.67;;;;;;;19.56;54.99;100967.66;5023525;28;20524;-65
2022/11/01 04:41:21;;;;;;;3.97;1.90;;;;;;;19.51;54.74;100959.31;5023170;28;20041;-65
2022/11/01 04:43:46;;;;;;;3.13;1.58;;;;;;;19.56;54.73;100967.66;5023349;28;20120;-66
2022/11/01 04:46:12;;;;;;;3.75;1.90;;;;;;;19.57;54.82;100983.41;5022660;28;20180;-65
2022/11/01 04:48:37;;;;;;;5.28;1.95;;;;;;;19.54;54.46;100982.84;5023463;28;20481;-66
2022/11/01 04:51:02;;;;;;;3.50;1.60;;;;;;;19.56;54.50;101000.22;5022320;28;20037;-64
2022/11/01 04:53:28;;;;;;;4.65;1.80;;;;;;;19.54;54.75;100999.53;5023222;28;20029;-64
2022/11/01 04:55:53;;;;;;;4.50;1.40;;;;;;;19.51;54.45;100997.13;5023007;28;20535;-64
2022/11/01 04:58:19;;;;;;;4.60;1.60;;;;;;;19.50;54.46;101007.84;5022948;28;20029;-65
2022/11/01 05:00:44;;;;;;;3.10;1.50;;;;;;;19.53;54.23;101016.34;5022792;28;20529;-65
2022/11/01 05:03:09;;;;;;;3.30;1.70;;;;;;;19.53;54.30;101026.91;5023068;28;20254;-64
2022/11/01 05:05:35;;;;;;;4.07;1.52;;;;;;;19.50;54.05;101026.34;5022655;28;20028;-65
2022/11/01 05:08:07;;;;;;;3.30;1.38;;;;;;;19.53;53.84;101052.53;5022678;28;20025;-65
2022/11/01 05:10:33;;;;;;;3.88;1.60;;;;;;;19.52;54.00;101045.56;5022292;28;20111;-65
2022/11/01 05:12:59;;;;;;;3.80;1.45;;;;;;;19.50;53.86;101050.13;5022835;28;20068;-67
2022/11/01 05:15:24;;;;;;;3.83;1.60;;;;;;;19.48;53.58;101044.97;5022370;28;20091;-66
2022/11/01 05:17:50;;;;;;;3.42;1.50;;;;;;;19.51;53.91;101049.19;5022804;28;20025;-65
2022/11/01 05:20:15;;;;;;;3.22;1.55;;;;;;;19.50;53.78;101053.63;5021392;28;20116;-66
2022/11/01 05:22:40;;;;;;;4.30;1.60;;;;;;;19.50;53.84;101053.63;5022526;28;20041;-66
2022/11/01 05:25:08;;;;;;;3.30;1.60;;;;;;;19.50;53.57;101068.63;5022288;28;20112;-66
2022/11/01 05:27:34;;;;;;;4.93;1.60;;;;;;;19.49;53.47;101073.09;5022717;28;20040;-66
2022/11/01 05:29:59;;;;;;;2.88;1.52;;;;;;;19.44;53.88;101062.06;5022356;28;20033;-66
2022/11/01 05:32:24;;;;;;;2.78;1.25;;;;;;;19.44;53.34;101062.06;5021795;28;20087;-66
2022/11/01 05:34:50;;;;;;;3.38;1.55;;;;;;;19.46;53.50;101059.31;5022157;28;20037;-65
2022/11/01 05:37:15;;;;;;;2.85;1.30;;;;;;;19.43;53.47;101068.31;5022679;28;20061;-68
2022/11/01 05:39:40;;;;;;;3.03;1.23;;;;;;;19.44;53.42;101071.78;5022616;28;20484;-66
2022/11/01 05:42:06;;;;;;;3.00;1.30;;;;;;;19.46;53.53;101075.16;5021417;28;20321;-65
2022/11/01 05:44:31;;;;;;;4.03;1.50;;;;;;;19.46;53.67;101081.28;5022076;28;20044;-64
2022/11/01 05:46:57;;;;;;;2.35;1.13;;;;;;;19.41;53.31;101080.81;5021900;28;20120;-67
2022/11/01 05:49:23;;;;;;;3.20;1.10;;;;;;;19.41;53.46;101072.91;5022282;28;20127;-66
2022/11/01 05:51:48;;;;;;;2.65;1.00;;;;;;;19.36;53.47;101075.09;5021270;28;20419;-66
2022/11/01 05:54:14;;;;;;;2.78;1.20;;;;;;;19.42;53.35;101089.59;5022262;28;20029;-66
2022/11/01 05:56:39;;;;;;;3.65;1.40;;;;;;;19.44;53.17;101085.00;5021140;28;20108;-66
2022/11/01 05:59:04;;;;;;;3.08;1.17;;;;;;;19.38;53.27;101087.19;5021746;28;20032;-65
2022/11/01 06:01:29;;;;;;;4.23;1.30;;;;;;;19.28;52.93;101078.38;5021648;28;20067;-65
2022/11/01 06:04:00;;;;;;;3.77;1.70;;;;;;;19.42;52.92;101098.34;5021755;28;20309;-66
2022/11/01 06:06:25;;;;;;;3.28;1.10;;;;;;;19.39;52.58;101082.75;5021751;28;20257;-65
2022/11/01 06:08:51;;;;;;;3.30;1.40;;;;;;;19.40;52.77;101110.84;5020364;28;20033;-65
2022/11/01 06:11:16;;;;;;;3.87;1.40;;;;;;;19.36;52.54;101102.34;5036945;28;20120;-65
2022/11/01 06:13:41;;;;;;;3.83;1.30;;;;;;;19.38;52.52;101120.72;5021104;28;20273;-68
2022/11/01 06:16:07;;;;;;;3.83;1.30;;;;;;;19.40;52.76;101129.34;5021615;28;20286;-66
2022/11/01 06:18:32;;;;;;;3.80;1.20;;;;;;;19.36;52.79;101118.22;5021282;28;20274;-66
2022/11/01 06:20:58;;;;;;;3.10;1.20;;;;;;;19.38;52.67;101133.94;5021269;28;20147;-65
2022/11/01 06:23:23;;;;;;;3.20;1.20;;;;;;;19.33;52.51;101128.19;5021289;28;20297;-66
2022/11/01 06:25:49;;;;;;;4.10;1.45;;;;;;;19.37;52.50;101138.38;5021631;28;20033;-66
2022/11/01 06:28:15;;;;;;;3.50;1.20;;;;;;;19.34;52.39;101136.00;5021659;28;20116;-66
2022/11/01 06:30:42;;;;;;;3.88;1.20;;;;;;;19.36;52.50;101143.81;5021089;28;20033;-66
2022/11/01 06:33:08;;;;;;;2.65;1.08;;;;;;;19.33;52.73;101142.25;5020793;28;20025;-66
2022/11/01 06:35:34;;;;;;;3.05;1.30;;;;;;;19.36;52.62;101143.81;5021220;28;20040;-65
2022/11/01 06:38:06;;;;;;;3.10;1.10;;;;;;;19.35;52.63;101155.31;5021461;28;20040;-65
2022/11/01 06:40:33;;;;;;;5.15;1.33;;;;;;;19.36;52.66;101164.94;5036349;28;20037;-67
2022/11/01 06:43:03;;;;;;;3.85;1.20;;;;;;;19.35;52.35;101168.53;5021253;28;20159;-65
2022/11/01 06:45:30;;;;;;;3.10;1.38;;;;;;;19.34;52.65;101175.66;5021050;28;20377;-66
2022/11/01 06:47:55;;;;;;;4.85;1.10;;;;;;;19.39;52.49;101177.88;5020914;28;20850;-67
2022/11/01 06:50:21;;;;;;;3.42;1.10;;;;;;;19.33;52.45;101168.66;5020885;28;20033;-66
2022/11/01 06:52:47;;;;;;;2.60;1.00;;;;;;;19.34;52.63;101175.66;5020160;28;20044;-65
2022/11/01 06:55:12;;;;;;;2.92;1.10;;;;;;;19.39;52.68;101193.75;5020031;28;20248;-66
2022/11/01 06:57:37;;;;;;;4.25;1.17;;;;;;;19.39;52.81;101188.44;5021390;28;20032;-65
2022/11/01 07:00:04;;;;;;;3.47;1.10;;;;;;;19.36;52.58;101188.72;5020206;28;20030;-64
2022/11/01 07:02:29;;;;;;;5.15;1.20;;;;;;;19.40;52.91;101193.63;5020554;28;20270;-65
2022/11/01 07:04:54;;;;;;;2.47;1.10;;;;;;;19.34;52.78;101183.56;5020825;28;20032;-66
2022/11/01 07:07:19;;;;;;;3.93;1.17;;;;;;;19.37;53.27;101199.16;5019251;28;20267;-65
2022/11/01 07:09:45;;;;;;;4.63;1.30;;;;;;;19.37;53.69;101198.31;5019845;28;20270;-64
2022/11/01 07:12:10;;;;;;;2.88;1.40;;;;;;;19.38;53.76;101202.66;5019858;28;20669;-64
2022/11/01 07:14:35;;;;;;;4.03;1.20;;;;;;;19.43;53.85;101211.03;5021166;28;20053;-64
2022/11/01 07:17:00;;;;;;;3.97;1.10;;;;;;;19.40;54.05;101217.41;5020620;28;20255;-68
2022/11/01 07:19:26;;;;;;;3.33;1.20;;;;;;;19.44;53.85;101225.09;5020660;28;20735;-67
2022/11/01 07:21:51;;;;;;;3.05;1.23;;;;;;;19.44;54.04;101231.22;5019558;28;20049;-67
2022/11/01 07:24:16;;;;;;;2.70;1.20;;;;;;;19.47;54.04;101236.28;5019549;28;20448;-66
2022/11/01 07:26:41;;;;;;;2.60;1.00;;;;;;;19.48;54.04;101251.16;5021091;28;20084;-66
2022/11/01 07:29:07;;;;;;;5.27;1.23;;;;;;;19.47;54.03;101244.19;5020605;28;20594;-67
2022/11/01 07:31:32;;;;;;;2.87;1.10;;;;;;;19.47;53.87;101246.84;5019062;28;20282;-65
2022/11/01 07:33:58;;;;;;;3.75;1.10;;;;;;;19.49;54.12;101255.47;5020449;28;20266;-68
2022/11/01 07:36:23;;;;;;;3.95;1.33;;;;;;;19.51;54.03;101250.91;5020330;28;20030;-64
2022/11/01 07:38:48;;;;;;;3.42;1.10;;;;;;;19.54;54.30;101271.81;5020082;28;20033;-65
2022/11/01 07:41:14;;;;;;;4.13;1.05;;;;;;;19.52;53.75;101257.06;5035907;28;20037;-67
2022/11/01 07:43:39;;;;;;;3.05;1.05;;;;;;;19.53;54.03;101266.66;5019970;28;20136;-63
2022/11/01 07:46:06;;;;;;;2.83;0.90;;;;;;;19.58;54.02;101267.09;5020326;28;20056;-66
2022/11/01 07:48:32;;;;;;;6.18;1.23;;;;;;;19.59;53.82;101255.56;5020054;28;20606;-65
2022/11/01 07:50:58;;;;;;;4.82;1.33;;;;;;;19.55;54.03;101262.06;5019986;28;20112;-66
2022/11/01 07:53:24;;;;;;;3.30;0.90;;;;;;;19.57;54.01;101265.44;5019316;28;20128;-65
2022/11/01 07:55:50;;;;;;;4.45;1.05;;;;;;;19.61;53.92;101271.31;5019919;28;20029;-65
2022/11/01 07:58:15;;;;;;;5.65;1.30;;;;;;;19.63;53.88;101287.88;5020372;28;20116;-65
2022/11/01 08:00:42;;;;;;;4.82;1.17;;;;;;;19.64;53.88;101287.75;5019265;28;20128;-68
2022/11/01 08:03:11;;;;;;;3.05;1.02;;;;;;;19.61;53.94;101281.88;5019151;28;20148;-66
2022/11/01 08:05:37;;;;;;;5.57;1.20;;;;;;;19.64;53.82;101286.94;5020352;28;20060;-68
2022/11/01 08:08:02;;;;;;;4.65;1.20;;;;;;;19.66;53.88;101292.94;5023488;28;20077;-65
2022/11/01 08:10:28;;;;;;;5.85;0.90;;;;;;;19.65;54.04;101296.56;5020935;28;20083;-77
2022/11/01 08:13:13;;;;;;;5.25;1.40;;;;;;;19.64;53.82;101302.78;5018607;28;20068;-79
2022/11/01 08:15:38;;;;;;;;;;;;;;;19.63;53.74;101303.75;5015805;28;20040;-80
2022/11/01 08:18:03;;;;;;;4.22;1.20;;;;;;;19.68;53.72;101310.38;5014963;28;19909;-82
2022/11/01 08:20:29;;;;;;;4.82;1.20;;;;;;;19.68;53.55;101304.25;5021624;28;20056;-78
2022/11/01 08:22:54;;;;;;;5.55;1.40;;;;;;;19.75;53.26;101316.00;5018372;28;20060;-78
2022/11/01 08:25:20;;;;;;;5.05;1.27;;;;;;;19.80;52.84;101299.78;5022913;28;20033;-78
2022/11/01 08:27:46;;;;;;;6.05;1.27;;;;;;;19.77;52.85;101311.44;5022689;28;20587;-74
2022/11/01 08:30:12;;;;;;;5.13;1.42;;;;;;;19.85;52.72;101326.69;5022580;28;20040;-76
2022/11/01 08:32:37;;;;;;;5.05;1.23;;;;;;;19.81;52.41;101318.16;5023195;28;20041;-77
2022/11/01 08:35:03;;;;;;;4.23;1.03;;;;;;;19.84;52.53;101327.69;5020840;28;20362;-80
2022/11/01 08:37:28;;;;;;;5.95;1.23;;;;;;;19.90;52.41;101328.00;5016348;28;20259;-82
2022/11/01 08:39:54;;;;;;;4.70;1.10;;;;;;;19.93;52.04;101332.19;5019820;28;20477;-70
2022/11/01 08:42:19;;;;;;;4.15;1.05;;;;;;;19.89;52.12;101328.97;5021257;28;20111;-68
2022/11/01 08:44:45;;;;;;;5.35;1.13;;;;;;;19.90;52.08;101324.50;5022154;28;20120;-78
2022/11/01 08:47:10;;;;;;;5.78;1.48;;;;;;;19.90;52.00;101319.22;5020807;28;20108;-78
2022/11/01 08:49:35;;;;;;;5.38;1.73;;;;;;;19.96;51.99;101320.53;5020974;28;20029;-78
2022/11/01 08:52:01;;;;;;;6.88;2.33;;;;;;;20.00;52.05;101319.34;5018483;28;20029;-78
2022/11/01 08:54:26;;;;;;;6.15;1.05;;;;;;;20.03;51.69;101337.59;5019026;28;20385;-72
2022/11/01 08:56:52;;;;;;;5.05;1.10;;;;;;;19.98;51.60;101342.41;5020829;28;20050;-71
2022/11/01 08:59:17;;;;;;;6.65;1.00;;;;;;;20.01;51.55;101340.38;5021029;28;20543;-72
2022/11/01 09:01:42;;;;;;;8.05;1.35;;;;;;;19.97;51.79;101348.69;5021989;28;20080;-71
2022/11/01 09:04:08;;;;;;;4.93;1.20;;;;;;;20.00;51.49;101343.97;5021138;28;20034;-79
2022/11/01 09:06:34;;;;;;;5.22;1.30;;;;;;;20.04;51.51;101349.84;5020272;28;20984;-79
2022/11/01 09:08:59;;;;;;;7.70;1.10;;;;;;;20.04;51.58;101360.44;5020252;28;20086;-78
2022/11/01 09:11:25;;;;;;;5.38;1.30;;;;;;;20.05;51.56;101335.66;5018112;28;20026;-77
2022/11/01 09:13:54;;;;;;;5.60;1.52;;;;;;;20.10;51.11;101366.06;5015336;28;20219;-74
2022/11/01 09:16:19;;;;;;;6.28;1.30;;;;;;;20.11;51.28;101357.16;5020681;28;20033;-74
2022/11/01 09:18:44;;;;;;;4.80;1.27;;;;;;;20.14;51.12;101347.28;5020173;28;20331;-79
2022/11/01 09:21:10;;;;;;;4.97;1.10;;;;;;;20.14;50.80;101361.38;5020030;28;20274;-71
2022/11/01 09:23:36;;;;;;;5.25;1.40;;;;;;;20.14;50.96;101374.59;5022314;28;20286;-73
2022/11/01 09:26:06;;;;;;;6.07;1.35;;;;;;;20.15;51.07;101368.31;5021275;28;20109;-78
2022/11/01 09:28:33;;;;;;;4.05;1.13;;;;;;;20.15;50.99;101364.84;5021842;28;20056;-77
2022/11/01 09:31:07;;;;;;;5.07;1.40;;;;;;;20.17;50.93;101361.13;5021564;28;20381;-73
2022/11/01 09:33:32;;;;;;;5.18;1.40;;;;;;;20.19;50.71;101375.06;5036994;28;20049;-71
2022/11/01 09:35:58;;;;;;;4.43;1.30;;;;;;;20.25;50.73;101371.91;5021936;28;20139;-73
2022/11/01 09:38:24;;;;;;;3.55;1.20;;;;;;;20.24;50.75;101388.75;5021123;28;20118;-74
2022/11/01 09:41:22;;;;;;;4.68;1.15;;;;;;;20.27;50.49;101392.97;5021323;28;20476;-80
2022/11/01 09:43:50;;;;;;;5.55;1.30;;;;;;;20.23;50.42;101399.47;5020696;28;20385;-71
2022/11/01 09:46:20;;;;;;;5.00;1.42;;;;;;;20.22;50.28;101396.00;5021351;28;20025;-70
2022/11/01 09:48:46;;;;;;;4.90;1.15;;;;;;;20.23;50.35;101405.59;5021747;28;20037;-75
2022/11/01 09:51:19;;;;;;;6.22;1.25;;;;;;;20.23;50.04;101402.94;5020208;28;20105;-77
2022/11/01 09:53:45;;;;;;;5.47;1.30;;;;;;;20.24;50.10;101415.22;5021847;28;20030;-71
2022/11/01 09:56:18;;;;;;;5.03;1.35;;;;;;;20.19;50.35;101398.06;5021213;28;20402;-79
2022/11/01 09:58:52;;;;;;;5.20;1.15;;;;;;;20.25;50.32;101416.06;5022072;28;20075;-79
2022/11/01 10:01:41;;;;;;;5.50;1.30;;;;;;;20.21;50.14;101415.47;5021011;28;20029;-77
2022/11/01 10:04:38;;;;;;;4.10;1.15;;;;;;;20.26;50.03;101423.03;5020493;28;20524;-76
2022/11/01 10:07:09;;;;;;;3.42;0.90;;;;;;;20.28;50.14;101429.91;5020487;28;20067;-75
2022/11/01 10:09:51;;;;;;;5.90;1.45;;;;;;;20.24;49.87;101430.28;5021273;28;20041;-70
2022/11/01 10:12:22;;;;;;;5.35;1.15;;;;;;;20.25;50.39;101439.88;5020938;28;20088;-71
2022/11/01 10:14:57;;;;;;;5.47;1.20;;;;;;;20.23;50.34;101442.63;5019672;28;20227;-71
2022/11/01 10:17:50;;;;;;;5.68;1.40;;;;;;;20.22;49.96;101448.91;5021238;28;20029;-67
2022/11/01 10:20:16;;;;;;;4.00;1.20;;;;;;;20.22;50.53;101454.22;5017017;28;20052;-65
2022/11/01 10:22:48;;;;;;;4.80;1.20;;;;;;;20.17;50.36;101439.66;5019257;28;20049;-65
2022/11/01 10:25:13;;;;;;;6.28;1.58;;;;;;;20.15;50.29;101441.59;5021082;28;20108;-65
2022/11/01 10:27:44;;;;;;;4.37;1.17;;;;;;;20.15;50.50;101447.72;5020457;28;20108;-65
2022/11/01 10:30:17;;;;;;;6.28;1.08;;;;;;;20.12;50.67;101450.59;5020461;28;20029;-68
2022/11/01 10:33:02;;;;;;;8.07;1.83;;;;;;;20.09;50.82;101446.41;5020965;28;20033;-66
2022/11/01 10:35:31;;;;;;;6.15;1.50;;;;;;;20.03;50.46;101446.91;5020952;28;20095;-65
2022/11/01 10:38:20;;;;;;;4.18;1.13;;;;;;;20.03;50.61;101443.44;5021080;28;20065;-67
2022/11/01 10:40:51;;;;;;;4.38;1.20;;;;;;;20.01;50.94;101448.84;5021650;28;20064;-65
2022/11/01 10:43:20;;;;;;;6.13;1.15;;;;;;;19.98;50.31;101450.88;5020769;28;20036;-67
2022/11/01 10:45:50;;;;;;;5.63;1.40;;;;;;;20.02;50.69;101455.78;5021460;28;20370;-66
2022/11/01 10:48:32;;;;;;;5.45;2.10;;;;;;;19.98;50.98;101448.22;5036517;28;20520;-64
2022/11/01 10:51:02;;;;;;;4.30;1.15;;;;;;;20.01;50.74;101450.63;5020890;28;20037;-67
2022/11/01 10:53:32;;;;;;;5.40;1.00;;;;;;;19.96;50.78;101437.75;5021487;28;20454;-67
2022/11/01 10:56:03;;;;;;;6.90;1.48;;;;;;;19.93;50.48;101428.28;5021310;28;20040;-67
2022/11/01 10:58:41;;;;;;;5.25;1.67;;;;;;;19.93;50.82;101444.16;5019489;28;20037;-68
2022/11/01 11:01:12;;;;;;;4.00;1.08;;;;;;;19.96;51.29;101445.69;5020723;28;20393;-69
2022/11/01 11:03:40;;;;;;;5.30;1.33;;;;;;;19.90;51.00;101441.75;5020704;28;20137;-65
2022/11/01 11:06:10;;;;;;;5.13;1.02;;;;;;;19.90;51.18;101451.47;5021147;28;20048;-66
2022/11/01 11:08:39;;;;;;;5.75;1.20;;;;;;;19.94;51.29;101445.00;5020839;28;20065;-66
2022/11/01 11:11:12;;;;;;;5.72;1.60;;;;;;;19.92;51.20;101447.75;5021142;28;20180;-65
2022/11/01 11:13:41;;;;;;;5.63;1.10;;;;;;;19.96;51.49;101448.34;5017457;28;20037;-75
2022/11/01 11:16:16;;;;;;;4.57;1.20;;;;;;;20.00;51.17;101441.84;5019802;28;20049;-73
2022/11/01 11:19:21;;;;;;;5.57;1.27;;;;;;;20.03;51.50;101446.06;5020008;28;20377;-72
2022/11/01 11:21:50;;;;;;;6.50;1.20;;;;;;;20.07;51.59;101443.03;5023936;28;20053;-72
2022/11/01 11:24:21;;;;;;;4.78;1.40;;;;;;;20.13;51.43;101438.25;5020378;28;20128;-69
2022/11/01 11:26:49;;;;;;;6.35;1.40;;;;;;;20.21;51.29;101436.63;5020091;28;20029;-68
2022/11/01 11:29:23;;;;;;;7.20;1.40;;;;;;;20.26;50.91;101430.97;5019099;28;20033;-68
2022/11/01 11:31:55;;;;;;;4.53;1.17;;;;;;;20.35;50.59;101446.13;5019547;28;20033;-69
2022/11/01 11:34:27;;;;;;;4.40;1.20;;;;;;;20.33;50.69;101431.31;5019783;28;20505;-66
2022/11/01 11:36:53;;;;;;;6.13;1.38;;;;;;;20.34;50.19;101440.94;5019146;28;20124;-67
2022/11/01 11:39:29;;;;;;;7.72;1.20;;;;;;;20.34;50.83;101441.78;5019256;28;20037;-67